Time;durP1;ratioP1;P1;durP2;ratioP2;P2;SDS_P1;SDS_P2;PMS_P1;PMS_P2;Temp;Humidity;BMP_temperature;BMP_pressure;BME280_temperature;BME280_humidity;BME280_pressure;Samples;Min_cycle;Max_cycle;Signal;HPM_P1;HPM_P2
2022/11/01 00:01:09;;;;;;;560.00;520.87;;;12.30;36.20;;;;;;4993827;28;20233;-73
2022/11/01 00:03:34;;;;;;;899.80;835.13;;;12.40;35.00;;;;;;4993768;28;20463;-72
2022/11/01 00:06:00;;;;;;;830.43;773.53;;;12.40;35.70;;;;;;4993801;28;20275;-73
2022/11/01 00:08:26;;;;;;;649.73;605.07;;;12.40;35.20;;;;;;4994110;28;20201;-73
2022/11/01 00:10:51;;;;;;;923.83;858.80;;;12.40;34.50;;;;;;4994121;28;20615;-72
2022/11/01 00:13:17;;;;;;;670.23;623.47;;;12.30;35.00;;;;;;4993819;28;20647;-72
2022/11/01 00:15:42;;;;;;;383.77;354.63;;;12.30;34.20;;;;;;4993695;28;20527;-72
2022/11/01 00:18:08;;;;;;;580.03;539.10;;;12.30;34.20;;;;;;4992089;28;20193;-71
2022/11/01 00:20:34;;;;;;;333.23;307.17;;;12.30;35.20;;;;;;4993659;28;20176;-71
2022/11/01 00:22:59;;;;;;;747.23;694.53;;;12.20;35.10;;;;;;4993365;28;20232;-71
2022/11/01 00:25:25;;;;;;;676.83;629.87;;;12.20;34.50;;;;;;4993689;28;20173;-70
2022/11/01 00:27:50;;;;;;;646.47;601.97;;;12.10;36.10;;;;;;4993289;28;20170;-71
2022/11/01 00:30:19;;;;;;;540.03;502.87;;;12.10;34.90;;;;;;4993801;28;20839;-71
2022/11/01 00:32:44;;;;;;;585.60;544.30;;;12.10;34.80;;;;;;4993485;28;20611;-71
2022/11/01 00:35:10;;;;;;;595.70;555.47;;;12.00;34.70;;;;;;4992173;28;20423;-71
2022/11/01 00:37:35;;;;;;;385.73;358.27;;;12.00;35.00;;;;;;4994027;28;20216;-71
2022/11/01 00:40:01;;;;;;;905.33;842.37;;;11.80;35.70;;;;;;4993189;28;20211;-71
2022/11/01 00:42:26;;;;;;;510.53;474.83;;;11.80;35.40;;;;;;4992946;28;20232;-71
2022/11/01 00:44:52;;;;;;;737.70;688.77;;;11.90;34.90;;;;;;4993493;28;20226;-71
2022/11/01 00:47:18;;;;;;;821.73;767.30;;;11.80;34.40;;;;;;4993312;28;20255;-71
2022/11/01 00:49:44;;;;;;;803.10;748.73;;;11.80;35.20;;;;;;4991937;28;20949;-71
2022/11/01 00:52:15;;;;;;;852.60;795.87;;;11.80;35.10;;;;;;4993190;28;20209;-71
2022/11/01 00:54:41;;;;;;;748.63;697.10;;;11.80;35.80;;;;;;4993244;28;20502;-71
2022/11/01 00:57:06;;;;;;;801.27;746.40;;;11.70;36.00;;;;;;4993109;28;20571;-72
2022/11/01 00:59:32;;;;;;;475.07;441.03;;;11.70;35.40;;;;;;4992877;28;20238;-71
2022/11/01 01:01:57;;;;;;;827.33;772.80;;;11.70;35.40;;;;;;4992760;28;20684;-72
2022/11/01 01:04:23;;;;;;;220.30;202.97;;;11.70;35.60;;;;;;4991944;28;20293;-71
2022/11/01 01:06:48;;;;;;;917.93;855.23;;;11.60;35.70;;;;;;4993075;28;20206;-71
2022/11/01 01:09:14;;;;;;;436.23;406.43;;;11.70;35.40;;;;;;4992955;28;20189;-72
2022/11/01 01:11:39;;;;;;;756.60;704.87;;;11.70;35.00;;;;;;4993099;28;20204;-71
2022/11/01 01:14:05;;;;;;;472.37;439.83;;;11.70;34.60;;;;;;4992751;28;20550;-71
2022/11/01 01:16:30;;;;;;;357.57;333.60;;;11.70;34.90;;;;;;4992485;28;20586;-70
2022/11/01 01:18:57;;;;;;;199.70;184.07;;;11.70;35.40;;;;;;4992954;28;20192;-71
2022/11/01 01:21:22;;;;;;;856.17;797.87;;;11.80;34.50;;;;;;4992676;28;20196;-70
2022/11/01 01:23:50;;;;;;;874.10;815.67;;;11.80;34.50;;;;;;4992199;28;20999;-70
2022/11/01 01:26:16;;;;;;;842.37;786.33;;;11.80;34.10;;;;;;4992564;28;20189;-70
2022/11/01 01:28:41;;;;;;;854.47;798.27;;;11.70;34.70;;;;;;4992253;28;20438;-70
2022/11/01 01:31:08;;;;;;;581.00;541.67;;;11.70;34.20;;;;;;4992699;28;20410;-70
2022/11/01 01:33:34;;;;;;;527.67;491.53;;;11.70;34.60;;;;;;4992270;28;20196;-70
2022/11/01 01:36:01;;;;;;;525.00;489.40;;;11.70;34.70;;;;;;4992309;28;20458;-70
2022/11/01 01:38:26;;;;;;;386.90;356.27;;;11.70;34.30;;;;;;4992321;28;20442;-70
2022/11/01 01:40:52;;;;;;;796.47;742.00;;;11.70;34.40;;;;;;4991315;28;20431;-70
2022/11/01 01:43:17;;;;;;;909.43;848.27;;;11.80;34.20;;;;;;4992660;28;20207;-70
2022/11/01 01:45:43;;;;;;;880.20;819.90;;;11.70;33.90;;;;;;4992633;28;20176;-71
2022/11/01 01:48:21;;;;;;;890.73;831.43;;;11.80;33.80;;;;;;4992142;28;20181;-72
2022/11/01 01:50:49;;;;;;;918.03;855.23;;;11.80;33.80;;;;;;4992340;28;20409;-71
2022/11/01 01:53:37;;;;;;;600.47;559.57;;;11.80;33.70;;;;;;4991989;28;20428;-72
2022/11/01 01:56:06;;;;;;;858.63;801.87;;;11.70;33.70;;;;;;4992242;28;20502;-71
2022/11/01 01:58:41;;;;;;;632.63;590.70;;;11.70;34.00;;;;;;4992091;28;20435;-70
2022/11/01 02:01:06;;;;;;;882.77;823.07;;;11.70;34.10;;;;;;4992239;28;20430;-71
2022/11/01 02:03:33;;;;;;;847.80;790.87;;;11.70;33.90;;;;;;4991847;28;20456;-71
2022/11/01 02:06:06;;;;;;;470.13;437.93;;;11.70;33.80;;;;;;4990975;28;20290;-70
2022/11/01 02:08:33;;;;;;;887.70;828.00;;;11.60;34.40;;;;;;4990693;28;20431;-71
2022/11/01 02:11:01;;;;;;;897.13;836.67;;;11.60;33.80;;;;;;4992050;28;20422;-70
2022/11/01 02:13:28;;;;;;;882.20;821.37;;;11.70;33.80;;;;;;4991794;28;20432;-72
2022/11/01 02:16:22;;;;;;;886.67;826.70;;;11.70;34.10;;;;;;4991969;28;20458;-70
2022/11/01 02:18:59;;;;;;;158.00;144.97;;;11.70;33.60;;;;;;4991831;28;20485;-72
2022/11/01 02:21:45;;;;;;;731.23;679.97;;;11.80;33.40;;;;;;4992046;28;20787;-72
2022/11/01 02:24:45;;;;;;;897.47;836.57;;;11.90;32.60;;;;;;4991850;28;20510;-72
2022/11/01 02:27:23;;;;;;;400.30;372.57;;;11.90;32.60;;;;;;4991967;28;20879;-72
2022/11/01 02:30:06;;;;;;;691.57;645.50;;;12.00;32.70;;;;;;4994809;28;20412;-71
2022/11/01 02:32:41;;;;;;;687.33;640.07;;;11.90;32.60;;;;;;4995316;28;20415;-70
2022/11/01 02:35:23;;;;;;;882.77;822.67;;;11.80;33.70;;;;;;4995579;28;20411;-71
2022/11/01 02:38:18;;;;;;;730.87;680.03;;;12.00;33.10;;;;;;4995083;28;20478;-71
2022/11/01 02:41:10;;;;;;;796.73;744.60;;;12.00;33.00;;;;;;4991624;28;20421;-70
2022/11/01 02:43:59;;;;;;;362.80;335.73;;;12.00;32.70;;;;;;4994931;28;20454;-69
2022/11/01 02:49:14;;;;;;;436.10;406.30;;;11.90;34.00;;;;;;4995545;28;20419;-71
2022/11/01 02:51:42;;;;;;;364.93;339.50;;;11.90;34.30;;;;;;4993981;28;20782;-72
2022/11/01 02:54:09;;;;;;;282.37;262.70;;;11.80;35.40;;;;;;4995002;28;21042;-72
2022/11/01 02:56:37;;;;;;;718.00;669.57;;;12.00;35.70;;;;;;4994545;28;20449;-71
2022/11/01 02:59:04;;;;;;;407.23;378.53;;;12.00;34.60;;;;;;4995081;28;20489;-71
2022/11/01 03:01:33;;;;;;;209.83;193.10;;;12.00;34.90;;;;;;4994836;28;20418;-70
2022/11/01 03:04:00;;;;;;;237.47;219.70;;;12.00;35.20;;;;;;4994574;28;20513;-69
2022/11/01 03:06:31;;;;;;;884.87;825.33;;;12.00;35.10;;;;;;4994577;28;20810;-70
2022/11/01 03:09:03;;;;;;;572.53;530.40;;;12.10;34.10;;;;;;4994725;28;20443;-70
2022/11/01 03:11:51;;;;;;;419.00;388.17;;;12.20;34.00;;;;;;4994660;28;20399;-70
2022/11/01 03:14:42;;;;;;;522.70;486.90;;;12.20;33.90;;;;;;4994680;28;20482;-70
2022/11/01 03:17:21;;;;;;;613.67;570.03;;;12.10;34.70;;;;;;4994312;28;20451;-70
2022/11/01 03:19:51;;;;;;;389.10;361.33;;;12.10;34.20;;;;;;4994556;28;20412;-70
2022/11/01 03:22:25;;;;;;;917.10;853.80;;;12.10;34.40;;;;;;4994141;28;20422;-70
2022/11/01 03:25:02;;;;;;;740.10;688.50;;;12.10;34.70;;;;;;4994415;28;20607;-70
2022/11/01 03:27:36;;;;;;;479.13;445.00;;;12.10;34.60;;;;;;4994065;28;20453;-70
2022/11/01 03:30:08;;;;;;;209.87;193.37;;;12.10;34.90;;;;;;4994374;28;20517;-70
2022/11/01 03:32:46;;;;;;;905.30;843.80;;;12.00;35.20;;;;;;4994021;28;20430;-71
2022/11/01 03:35:18;;;;;;;872.60;812.97;;;12.10;34.90;;;;;;4994296;28;20478;-71
2022/11/01 03:37:45;;;;;;;932.47;867.87;;;12.10;34.40;;;;;;5022630;23;20533;-73
2022/11/01 03:40:13;;;;;;;720.37;674.53;;;12.20;34.70;;;;;;5013457;28;20428;-73
2022/11/01 03:42:42;;;;;;;799.73;747.33;;;12.20;33.50;;;;;;5013238;28;20417;-73
2022/11/01 03:45:11;;;;;;;691.07;641.80;;;12.30;33.50;;;;;;5013580;28;20509;-72
2022/11/01 03:47:36;;;;;;;891.33;827.47;;;12.30;33.00;;;;;;5013216;28;20990;-72
2022/11/01 03:50:20;;;;;;;458.53;424.50;;;12.30;33.30;;;;;;5013647;28;20437;-73
2022/11/01 03:52:46;;;;;;;270.40;248.93;;;12.40;33.80;;;;;;4993658;28;20455;-73
2022/11/01 03:55:17;;;;;;;783.33;728.27;;;12.40;33.10;;;;;;4993877;28;20421;-73
2022/11/01 03:57:44;;;;;;;914.43;851.40;;;12.40;33.10;;;;;;4993812;28;20954;-73
2022/11/01 04:00:12;;;;;;;538.43;500.03;;;12.40;32.70;;;;;;4993760;28;20423;-73
2022/11/01 04:02:37;;;;;;;664.20;618.37;;;12.50;32.40;;;;;;4992143;28;20459;-73
2022/11/01 04:05:04;;;;;;;933.73;869.80;;;12.60;31.30;;;;;;4993643;28;20900;-73
2022/11/01 04:07:29;;;;;;;914.13;850.03;;;12.50;31.50;;;;;;4993454;28;20207;-73
2022/11/01 04:09:55;;;;;;;723.07;673.30;;;12.50;31.90;;;;;;5006251;28;20449;-73
2022/11/01 04:12:20;;;;;;;569.40;531.20;;;12.50;31.50;;;;;;5012929;28;20642;-73
2022/11/01 04:20:32;;;;;;;451.53;421.87;;;12.70;30.20;;;;;;5005311;28;20484;-72
2022/11/01 04:23:03;;;;;;;659.33;613.17;;;12.80;29.90;;;;;;5012672;28;20453;-73
2022/11/01 04:25:29;;;;;;;792.43;738.83;;;12.80;29.70;;;;;;5012887;28;20497;-73
2022/11/01 04:27:55;;;;;;;788.00;733.73;;;12.70;30.00;;;;;;5012499;28;20461;-73
2022/11/01 04:30:25;;;;;;;398.47;369.47;;;12.70;30.20;;;;;;5012796;28;20417;-73
2022/11/01 04:32:51;;;;;;;641.33;596.77;;;12.70;30.00;;;;;;5000046;28;20433;-73
2022/11/01 04:35:17;;;;;;;878.63;819.03;;;12.80;29.70;;;;;;4993073;28;20407;-73
2022/11/01 04:37:42;;;;;;;827.40;772.20;;;12.80;29.50;;;;;;4992926;28;20275;-72
2022/11/01 04:40:09;;;;;;;876.03;816.13;;;12.80;29.50;;;;;;4993019;28;20187;-73
2022/11/01 04:42:36;;;;;;;253.23;234.03;;;12.80;29.20;;;;;;4992689;28;20173;-73
2022/11/01 04:45:03;;;;;;;853.77;796.80;;;12.90;28.90;;;;;;4992914;28;20417;-73
2022/11/01 04:47:28;;;;;;;809.90;756.07;;;12.90;28.80;;;;;;4992735;28;21015;-73
2022/11/01 04:49:54;;;;;;;409.00;381.70;;;12.90;29.10;;;;;;4992921;28;20489;-73
2022/11/01 04:52:20;;;;;;;571.87;532.63;;;12.90;28.70;;;;;;4991947;28;20175;-73
2022/11/01 04:54:45;;;;;;;653.87;609.37;;;13.00;28.80;;;;;;4992827;28;20575;-72
2022/11/01 04:57:23;;;;;;;766.00;713.13;;;12.90;29.00;;;;;;4992703;28;20615;-72
2022/11/01 04:59:53;;;;;;;748.70;697.70;;;12.90;29.00;;;;;;4992829;28;20176;-71
2022/11/01 05:02:20;;;;;;;833.43;776.97;;;13.00;28.70;;;;;;4992666;28;20461;-70
2022/11/01 05:04:46;;;;;;;854.63;797.77;;;13.10;28.90;;;;;;4992668;28;20514;-70
2022/11/01 05:07:12;;;;;;;481.20;447.03;;;13.10;28.90;;;;;;4992889;28;20812;-71
2022/11/01 05:09:37;;;;;;;847.93;790.13;;;13.00;29.60;;;;;;5005208;28;20176;-71
2022/11/01 05:12:03;;;;;;;290.00;268.37;;;13.00;29.00;;;;;;4992218;28;20516;-71
2022/11/01 05:14:29;;;;;;;515.70;479.07;;;13.10;28.90;;;;;;4991659;28;20225;-71
2022/11/01 05:16:55;;;;;;;829.10;773.53;;;13.10;28.90;;;;;;4992446;28;20208;-71
2022/11/01 05:19:20;;;;;;;758.40;705.03;;;13.10;29.10;;;;;;4992730;28;20187;-72
2022/11/01 05:21:46;;;;;;;508.80;472.00;;;13.10;28.90;;;;;;4992406;28;20832;-72
2022/11/01 05:24:12;;;;;;;850.73;793.07;;;13.20;28.90;;;;;;4992324;28;20198;-71
2022/11/01 05:26:37;;;;;;;334.23;310.97;;;13.20;28.90;;;;;;4992485;28;20199;-71
2022/11/01 05:29:03;;;;;;;674.67;630.10;;;13.30;28.30;;;;;;4992484;28;20258;-72
2022/11/01 05:31:29;;;;;;;806.97;751.90;;;13.30;28.10;;;;;;4992469;28;20602;-71
2022/11/01 05:33:54;;;;;;;677.57;631.57;;;13.30;28.50;;;;;;4992224;28;20264;-71
2022/11/01 05:36:20;;;;;;;512.10;476.20;;;13.30;28.30;;;;;;4990973;28;20212;-71
2022/11/01 05:38:45;;;;;;;369.33;343.43;;;13.40;28.30;;;;;;5003876;28;20247;-71
2022/11/01 05:41:11;;;;;;;732.70;683.33;;;13.40;28.00;;;;;;4992365;28;20177;-71
2022/11/01 05:43:36;;;;;;;672.80;626.63;;;13.40;27.80;;;;;;4992013;28;20303;-72
2022/11/01 05:46:06;;;;;;;708.43;658.43;;;13.40;27.30;;;;;;4992269;28;20188;-72
2022/11/01 05:48:32;;;;;;;740.80;687.30;;;13.50;27.20;;;;;;4992301;28;20181;-72
2022/11/01 05:50:58;;;;;;;708.17;659.93;;;13.50;27.20;;;;;;4993784;28;20474;-72
2022/11/01 05:53:23;;;;;;;506.73;470.70;;;13.60;27.10;;;;;;5011548;28;20430;-72
2022/11/01 05:55:49;;;;;;;229.10;210.80;;;13.60;27.00;;;;;;5012306;28;20187;-72
2022/11/01 05:58:14;;;;;;;797.90;741.83;;;13.60;26.50;;;;;;5011688;28;20195;-72
2022/11/01 06:00:40;;;;;;;553.97;515.77;;;13.70;26.70;;;;;;5011827;28;20184;-72
2022/11/01 06:03:06;;;;;;;813.47;757.27;;;13.70;26.80;;;;;;5013317;28;20204;-72
2022/11/01 06:05:31;;;;;;;662.97;615.27;;;13.60;26.90;;;;;;5014298;28;20184;-72
2022/11/01 06:08:00;;;;;;;839.07;779.50;;;13.60;27.00;;;;;;5015080;28;20204;-72
2022/11/01 06:10:26;;;;;;;216.57;200.53;;;13.60;26.90;;;;;;5000690;28;20181;-72
2022/11/01 06:12:51;;;;;;;558.23;519.00;;;13.70;26.80;;;;;;4995520;28;20415;-71
2022/11/01 06:15:17;;;;;;;640.37;595.73;;;13.60;26.60;;;;;;4995694;28;20211;-71
2022/11/01 06:17:42;;;;;;;717.93;665.87;;;13.60;26.90;;;;;;4995678;28;20201;-71
2022/11/01 06:20:08;;;;;;;671.37;624.03;;;13.60;26.80;;;;;;4995707;28;20181;-72
2022/11/01 06:22:37;;;;;;;616.63;573.07;;;13.60;26.70;;;;;;4995219;28;20190;-72
2022/11/01 06:25:04;;;;;;;785.97;730.83;;;13.70;26.70;;;;;;4995396;28;20451;-71
2022/11/01 06:27:30;;;;;;;652.40;606.53;;;13.70;27.00;;;;;;4995743;28;20490;-72
2022/11/01 06:29:55;;;;;;;217.27;200.53;;;13.70;26.50;;;;;;4995456;28;20408;-71
2022/11/01 06:32:21;;;;;;;244.03;225.47;;;13.80;26.40;;;;;;4995333;28;20177;-72
2022/11/01 06:34:46;;;;;;;202.33;186.73;;;13.90;26.20;;;;;;4995810;28;20204;-72
2022/11/01 06:37:12;;;;;;;771.60;714.93;;;14.00;26.10;;;;;;4995637;28;20216;-72
2022/11/01 06:39:37;;;;;;;214.67;197.73;;;14.00;26.30;;;;;;4997472;28;20182;-72
2022/11/01 06:42:04;;;;;;;657.23;609.77;;;14.20;25.50;;;;;;5013940;28;20180;-72
2022/11/01 06:44:29;;;;;;;514.40;477.23;;;14.20;26.00;;;;;;5015268;28;20214;-71
2022/11/01 06:46:55;;;;;;;305.80;284.17;;;14.30;25.60;;;;;;5013858;28;20443;-72
2022/11/01 06:49:21;;;;;;;402.10;372.93;;;14.40;25.60;;;;;;5002466;28;20184;-71
2022/11/01 06:51:47;;;;;;;247.13;228.20;;;14.50;25.60;;;;;;5006545;28;20260;-70
2022/11/01 06:54:12;;;;;;;693.97;642.47;;;14.60;25.20;;;;;;4996126;28;20416;-71
2022/11/01 06:56:39;;;;;;;794.67;732.53;;;14.60;25.20;;;;;;4996830;28;20442;-72
2022/11/01 06:59:05;;;;;;;376.93;348.77;;;14.60;25.50;;;;;;5014955;28;20191;-72
2022/11/01 07:01:31;;;;;;;749.57;693.43;;;14.70;25.40;;;;;;5013181;28;20438;-71
2022/11/01 07:03:56;;;;;;;801.83;739.87;;;14.70;25.30;;;;;;5012856;28;20458;-71
2022/11/01 07:06:27;;;;;;;182.33;169.27;;;14.80;25.50;;;;;;5015589;28;20227;-71
2022/11/01 07:08:53;;;;;;;758.37;699.13;;;14.90;25.20;;;;;;5013037;28;20184;-72
2022/11/01 07:11:18;;;;;;;590.97;548.13;;;14.90;24.90;;;;;;5014703;28;20415;-71
2022/11/01 07:13:44;;;;;;;621.70;573.73;;;14.90;25.10;;;;;;5011186;28;20430;-71
2022/11/01 07:16:09;;;;;;;582.00;538.67;;;14.90;25.10;;;;;;5006246;28;20738;-72
2022/11/01 07:18:35;;;;;;;419.37;388.73;;;14.90;25.20;;;;;;5003323;28;20203;-72
2022/11/01 07:21:06;;;;;;;373.53;346.03;;;14.90;25.80;;;;;;5001551;28;20191;-71
2022/11/01 07:23:32;;;;;;;752.87;694.43;;;14.90;25.20;;;;;;5005177;28;20228;-72
2022/11/01 07:25:58;;;;;;;768.67;708.93;;;15.00;25.00;;;;;;4994861;28;20443;-71
2022/11/01 07:28:24;;;;;;;668.27;619.17;;;15.10;24.90;;;;;;5004078;28;20188;-73
2022/11/01 07:30:53;;;;;;;636.80;588.90;;;15.20;24.80;;;;;;5026565;28;20597;-73
2022/11/01 07:33:19;;;;;;;734.70;678.23;;;15.30;24.60;;;;;;4994693;28;20415;-72
2022/11/01 07:35:46;;;;;;;603.77;559.00;;;15.40;24.40;;;;;;4994467;28;20902;-73
2022/11/01 07:38:12;;;;;;;291.40;271.93;;;15.50;24.20;;;;;;4994316;28;20464;-73
2022/11/01 07:40:38;;;;;;;765.67;703.20;;;15.70;23.30;;;;;;5010087;28;21006;-72
2022/11/01 07:43:04;;;;;;;751.60;692.17;;;15.70;23.30;;;;;;5013645;28;20559;-72
2022/11/01 07:45:32;;;;;;;776.57;716.47;;;15.80;23.10;;;;;;5013721;28;20419;-72
2022/11/01 07:48:03;;;;;;;605.70;559.03;;;15.90;22.90;;;;;;5001536;28;20471;-71
2022/11/01 07:50:33;;;;;;;825.53;760.00;;;15.90;22.40;;;;;;4992623;28;20842;-71
2022/11/01 07:53:07;;;;;;;777.40;715.60;;;16.00;22.80;;;;;;4994174;28;20439;-71
2022/11/01 07:55:34;;;;;;;647.23;600.50;;;16.10;22.90;;;;;;4998260;28;20439;-71
2022/11/01 07:58:00;;;;;;;417.90;384.67;;;16.00;22.50;;;;;;5003864;28;20459;-71
2022/11/01 08:00:26;;;;;;;871.37;800.47;;;16.10;23.10;;;;;;5012327;28;20449;-71
2022/11/01 08:02:59;;;;;;;284.13;264.60;;;16.30;22.70;;;;;;5011991;28;20508;-71
2022/11/01 08:05:24;;;;;;;534.67;494.97;;;16.50;22.10;;;;;;5013043;28;20653;-73
2022/11/01 08:07:50;;;;;;;556.60;516.40;;;16.50;21.70;;;;;;5013260;28;20441;-70
2022/11/01 08:10:15;;;;;;;745.53;687.87;;;16.50;21.10;;;;;;5013267;28;20733;-70
2022/11/01 08:12:41;;;;;;;926.47;851.10;;;16.60;21.50;;;;;;5013905;28;20203;-71
2022/11/01 08:15:07;;;;;;;673.30;618.67;;;16.70;21.50;;;;;;5011319;28;20188;-70
2022/11/01 08:17:33;;;;;;;540.20;501.20;;;16.80;21.30;;;;;;5012709;28;20587;-71
2022/11/01 08:19:58;;;;;;;702.60;648.73;;;16.90;20.30;;;;;;5012929;28;20415;-72
2022/11/01 08:22:24;;;;;;;420.17;390.33;;;16.80;20.30;;;;;;5010857;28;20441;-72
2022/11/01 08:24:50;;;;;;;655.77;608.73;;;16.90;20.70;;;;;;5011834;28;20211;-71
2022/11/01 08:27:15;;;;;;;717.47;663.20;;;17.10;19.30;;;;;;5012857;28;20200;-71
2022/11/01 08:29:41;;;;;;;244.93;229.57;;;17.10;19.30;;;;;;5012802;28;20183;-71
2022/11/01 08:32:07;;;;;;;381.40;352.80;;;17.30;19.10;;;;;;5011166;28;20223;-71
2022/11/01 08:34:32;;;;;;;419.47;390.97;;;17.40;18.90;;;;;;5006636;28;20183;-72
2022/11/01 08:36:58;;;;;;;250.47;234.33;;;17.50;18.60;;;;;;5001892;28;20612;-70
2022/11/01 08:39:24;;;;;;;786.60;726.10;;;17.60;18.30;;;;;;5007261;28;20221;-71
2022/11/01 08:41:50;;;;;;;1011.00;927.33;;;17.60;17.80;;;;;;5008559;28;20187;-71
2022/11/01 08:44:18;;;;;;;806.97;741.20;;;17.70;18.20;;;;;;5007707;28;20556;-70
2022/11/01 08:46:44;;;;;;;648.63;599.60;;;17.90;18.00;;;;;;5006895;28;20526;-70
2022/11/01 08:49:10;;;;;;;995.57;913.07;;;18.10;17.60;;;;;;5008006;28;20422;-71
2022/11/01 08:51:37;;;;;;;826.60;759.07;;;18.30;17.30;;;;;;5007050;28;20435;-71
2022/11/01 08:54:06;;;;;;;749.23;686.77;;;18.50;16.70;;;;;;5008462;28;20969;-70
2022/11/01 08:56:33;;;;;;;939.07;862.03;;;18.70;15.70;;;;;;5008514;28;20545;-71
2022/11/01 08:58:58;;;;;;;970.40;889.90;;;18.80;15.80;;;;;;5008271;28;20509;-72
2022/11/01 09:01:25;;;;;;;976.57;896.13;;;18.80;15.70;;;;;;5004128;28;20666;-70
2022/11/01 09:04:00;;;;;;;1023.87;934.73;;;18.90;15.40;;;;;;4988204;28;20229;-70
2022/11/01 09:06:27;;;;;;;950.43;872.10;;;19.00;15.00;;;;;;4988480;28;20428;-71
2022/11/01 09:08:54;;;;;;;1021.00;933.00;;;19.20;14.80;;;;;;4987508;28;20455;-71
2022/11/01 09:11:21;;;;;;;949.43;869.63;;;19.40;14.60;;;;;;4992712;28;20419;-71
2022/11/01 09:13:46;;;;;;;783.73;718.30;;;19.40;14.00;;;;;;5008513;28;20958;-71
2022/11/01 09:16:12;;;;;;;495.07;460.13;;;19.40;13.90;;;;;;4995485;28;20467;-71
2022/11/01 09:18:38;;;;;;;852.70;781.03;;;19.50;12.50;;;;;;4989402;28;20547;-72
2022/11/01 09:21:03;;;;;;;907.43;829.60;;;19.50;12.20;;;;;;4989889;28;20674;-71
2022/11/01 09:23:29;;;;;;;1001.10;914.00;;;19.50;13.00;;;;;;5007958;28;20585;-72
2022/11/01 09:26:05;;;;;;;1001.07;915.17;;;19.50;13.10;;;;;;5008445;28;20306;-72
2022/11/01 09:28:32;;;;;;;622.70;578.50;;;19.50;13.20;;;;;;5007369;28;20198;-72
2022/11/01 09:31:06;;;;;;;1091.50;995.03;;;19.30;12.70;;;;;;4988198;28;20424;-73
2022/11/01 09:33:32;;;;;;;910.90;834.87;;;19.00;13.70;;;;;;4988126;28;20486;-73
2022/11/01 09:35:58;;;;;;;759.10;702.10;;;19.00;14.00;;;;;;4995449;28;20947;-71
2022/11/01 09:38:31;;;;;;;802.30;736.93;;;18.70;13.30;;;;;;5011391;28;20206;-72
2022/11/01 09:41:22;;;;;;;825.43;758.83;;;18.50;14.40;;;;;;5010733;28;20918;-71
2022/11/01 09:43:50;;;;;;;730.23;673.23;;;18.50;14.10;;;;;;5013570;28;20493;-71
2022/11/01 09:46:19;;;;;;;810.00;746.63;;;18.70;14.30;;;;;;5007603;28;20478;-72
2022/11/01 09:48:46;;;;;;;680.33;626.33;;;18.60;13.40;;;;;;4998448;28;20415;-71
2022/11/01 09:51:18;;;;;;;562.70;520.93;;;18.60;13.90;;;;;;5008611;28;20954;-71
2022/11/01 09:53:45;;;;;;;634.90;590.83;;;18.80;13.50;;;;;;5000336;28;20438;-71
2022/11/01 09:56:21;;;;;;;750.50;694.80;;;18.90;13.10;;;;;;5012193;28;20994;-71
2022/11/01 09:59:10;;;;;;;711.07;658.73;;;18.70;13.30;;;;;;5010615;28;20429;-71
2022/11/01 10:01:53;;;;;;;665.93;614.57;;;18.70;12.70;;;;;;5009764;28;20437;-70
2022/11/01 10:04:28;;;;;;;774.77;716.33;;;18.80;13.80;;;;;;5012594;28;20626;-71
2022/11/01 10:07:12;;;;;;;705.70;652.97;;;18.70;12.90;;;;;;5011387;28;20429;-70
2022/11/01 10:09:59;;;;;;;835.20;769.17;;;18.70;12.60;;;;;;5012001;28;20423;-71
2022/11/01 10:12:39;;;;;;;754.33;696.53;;;18.80;13.00;;;;;;5000351;28;20798;-71
2022/11/01 10:15:16;;;;;;;857.57;790.53;;;18.90;12.70;;;;;;4993891;28;20423;-71
2022/11/01 10:17:48;;;;;;;524.97;487.23;;;19.10;12.40;;;;;;4991292;28;20574;-71
2022/11/01 10:20:14;;;;;;;719.73;662.13;;;19.10;11.60;;;;;;4992103;28;20802;-71
2022/11/01 10:22:42;;;;;;;556.57;516.93;;;19.00;11.40;;;;;;4991133;28;20546;-72
2022/11/01 10:25:24;;;;;;;516.57;482.33;;;19.20;11.50;;;;;;4992716;28;20875;-71
2022/11/01 10:28:02;;;;;;;864.40;795.30;;;19.20;11.50;;;;;;4992789;28;20522;-73
2022/11/01 10:30:35;;;;;;;735.27;680.17;;;19.30;11.60;;;;;;4997046;28;20800;-72
2022/11/01 10:33:24;;;;;;;483.40;448.60;;;19.30;10.10;;;;;;4998341;28;20439;-72
2022/11/01 10:35:55;;;;;;;822.13;757.90;;;19.60;10.10;;;;;;5002680;28;20423;-72
2022/11/01 10:38:36;;;;;;;455.17;423.33;;;19.40;9.60;;;;;;4995366;28;20502;-72
2022/11/01 10:41:28;;;;;;;504.93;468.33;;;19.50;10.30;;;;;;4996590;28;20415;-70
2022/11/01 10:43:59;;;;;;;627.97;578.83;;;19.70;10.10;;;;;;4997678;28;20474;-70
2022/11/01 10:46:30;;;;;;;444.20;414.37;;;19.70;10.00;;;;;;5014763;28;20849;-71
2022/11/01 10:49:01;;;;;;;499.87;463.90;;;19.70;9.80;;;;;;5013692;28;20403;-72
2022/11/01 10:51:30;;;;;;;743.83;689.47;;;20.00;10.00;;;;;;4998251;28;20423;-70
2022/11/01 10:54:00;;;;;;;664.40;616.67;;;19.80;9.90;;;;;;5011493;28;20932;-70
2022/11/01 10:56:43;;;;;;;791.20;730.47;;;19.70;9.70;;;;;;5001237;28;20432;-71
2022/11/01 10:59:26;;;;;;;440.83;409.77;;;19.80;9.70;;;;;;4997380;28;20954;-71
2022/11/01 11:01:53;;;;;;;752.13;694.13;;;20.00;9.90;;;;;;5018075;28;20800;-71
2022/11/01 11:04:22;;;;;;;689.90;639.83;;;20.10;9.10;;;;;;5017279;28;20458;-73
2022/11/01 11:06:48;;;;;;;780.20;721.33;;;20.10;9.50;;;;;;5006588;28;20525;-73
2022/11/01 11:09:31;;;;;;;702.60;649.30;;;19.80;9.70;;;;;;5018473;28;20415;-71
2022/11/01 11:12:13;;;;;;;666.33;617.17;;;19.70;10.30;;;;;;5017127;28;20423;-71
2022/11/01 11:14:40;;;;;;;743.67;681.23;;;19.60;9.90;;;;;;5014951;28;20426;-73
2022/11/01 11:17:29;;;;;;;643.70;595.03;;;19.50;9.90;;;;;;5017282;28;20437;-71
2022/11/01 11:20:00;;;;;;;758.40;702.10;;;19.60;10.10;;;;;;5016605;28;20415;-71
2022/11/01 11:22:26;;;;;;;746.20;689.23;;;19.50;10.20;;;;;;5015630;28;20798;-71
2022/11/01 11:24:56;;;;;;;707.63;655.37;;;19.30;10.90;;;;;;5015955;28;20466;-72
2022/11/01 11:27:27;;;;;;;693.00;641.57;;;19.30;10.80;;;;;;5013439;28;20227;-71
2022/11/01 11:30:00;;;;;;;666.63;616.77;;;19.30;10.30;;;;;;5010163;28;20944;-71
2022/11/01 11:32:29;;;;;;;760.10;702.43;;;19.30;9.70;;;;;;4997076;28;20404;-72
2022/11/01 11:34:56;;;;;;;786.43;728.63;;;19.30;10.10;;;;;;4997394;28;20431;-74
2022/11/01 11:37:24;;;;;;;836.97;774.90;;;19.40;10.40;;;;;;4995238;28;20467;-75
2022/11/01 11:40:11;;;;;;;748.30;688.07;;;19.20;10.20;;;;;;5000270;28;20412;-74
2022/11/01 11:42:37;;;;;;;396.00;369.00;;;19.40;9.90;;;;;;5016906;28;20410;-74
2022/11/01 11:45:12;;;;;;;682.67;631.97;;;19.70;10.00;;;;;;5017858;28;20516;-74
2022/11/01 11:47:38;;;;;;;841.20;774.93;;;20.00;8.20;;;;;;5018201;28;20430;-75
2022/11/01 11:50:18;;;;;;;725.63;670.67;;;20.10;8.70;;;;;;5017255;28;20422;-72
2022/11/01 11:52:47;;;;;;;829.80;766.13;;;20.00;8.40;;;;;;5001236;28;20188;-75
2022/11/01 11:55:27;;;;;;;665.87;614.37;;;19.90;9.20;;;;;;4997306;28;20786;-74
2022/11/01 11:57:54;;;;;;;653.40;604.37;;;19.70;9.70;;;;;;5015926;28;20472;-75
2022/11/01 12:00:22;;;;;;;502.03;469.33;;;19.20;10.00;;;;;;5007768;28;20443;-75
2022/11/01 12:02:49;;;;;;;815.17;754.20;;;19.20;10.70;;;;;;4997205;28;20420;-76
2022/11/01 12:05:17;;;;;;;693.23;642.60;;;19.30;9.80;;;;;;4996487;28;20472;-73
2022/11/01 12:07:47;;;;;;;709.07;656.13;;;19.30;9.40;;;;;;4997448;28;20436;-75
2022/11/01 12:10:56;;;;;;;538.23;499.73;;;19.30;9.60;;;;;;5008871;28;20990;-75
2022/11/01 12:13:31;;;;;;;345.10;322.70;;;19.40;9.10;;;;;;5015471;28;20904;-75
2022/11/01 12:16:06;;;;;;;883.63;808.23;;;19.50;9.40;;;;;;5016201;28;20426;-75
2022/11/01 12:18:31;;;;;;;587.90;548.57;;;19.30;9.90;;;;;;5009283;28;20422;-75
2022/11/01 12:20:57;;;;;;;682.93;632.93;;;19.30;9.40;;;;;;5017416;28;20438;-75
2022/11/01 12:23:31;;;;;;;598.77;555.17;;;19.40;10.10;;;;;;5018221;28;20210;-76
2022/11/01 12:25:59;;;;;;;821.90;757.63;;;19.30;10.00;;;;;;5016709;28;20274;-75
2022/11/01 12:28:45;;;;;;;439.10;409.80;;;19.30;10.00;;;;;;5016633;28;20415;-75